Time;durP1;ratioP1;P1;durP2;ratioP2;P2;SDS_P1;SDS_P2;PMS_P1;PMS_P2;Temp;Humidity;BMP_temperature;BMP_pressure;BME280_temperature;BME280_humidity;BME280_pressure;Samples;Min_cycle;Max_cycle;Signal;HPM_P1;HPM_P2
2021/11/09 00:00:01;;;;;;;19.70;9.93;;;;;;;4.96;99.51;101848.81;678900;28;1022;-50
2021/11/09 00:00:34;;;;;;;17.23;9.95;;;;;;;4.94;99.98;101850.44;679059;29;1333;-51
2021/11/09 00:00:58;;;;;;;17.17;9.65;;;;;;;4.97;100.00;101855.75;681811;28;4616;-52
2021/11/09 00:01:18;;;;;;;17.58;9.63;;;;;;;5.00;100.00;101849.78;683199;28;1072;-52
2021/11/09 00:01:51;;;;;;;17.75;9.57;;;;;;;4.98;99.70;101854.91;682697;28;1124;-51
2021/11/09 00:02:12;;;;;;;18.52;10.55;;;;;;;4.98;100.00;101851.44;683263;28;1955;-54
2021/11/09 00:02:34;;;;;;;18.55;9.95;;;;;;;5.01;100.00;101857.63;682239;28;3740;-54
2021/11/09 00:02:55;;;;;;;17.73;9.63;;;;;;;5.03;99.66;101844.72;681884;28;1198;-52
2021/11/09 00:03:16;;;;;;;18.85;10.00;;;;;;;5.08;99.73;101848.34;678977;28;1574;-51
2021/11/09 00:03:58;;;;;;;16.45;9.55;;;;;;;5.13;100.00;101843.34;678598;28;2178;-54
2021/11/09 00:04:25;;;;;;;19.25;9.63;;;;;;;5.10;99.55;101850.19;680084;29;4835;-53
2021/11/09 00:04:51;;;;;;;20.15;10.00;;;;;;;5.15;99.66;101845.19;681691;28;1267;-53
2021/11/09 00:05:15;;;;;;;17.02;9.48;;;;;;;5.11;98.95;101836.41;681231;28;3158;-51
2021/11/09 00:06:04;;;;;;;19.52;9.68;;;;;;;5.05;98.96;101833.59;682134;28;2109;-52
2021/11/09 00:06:27;;;;;;;20.00;10.43;;;;;;;5.02;99.49;101840.38;683037;28;1175;-51
2021/11/09 00:06:58;;;;;;;21.50;10.82;;;;;;;4.99;99.32;101838.53;683513;28;1783;-50
2021/11/09 00:07:45;;;;;;;22.23;10.70;;;;;;;4.99;99.51;101837.66;682718;28;1027;-55
2021/11/09 00:08:12;;;;;;;21.38;10.73;;;;;;;4.97;99.48;101840.22;682836;28;1017;-54
2021/11/09 00:08:40;;;;;;;20.98;10.30;;;;;;;5.01;99.75;101836.91;682083;28;3420;-53
2021/11/09 00:09:10;;;;;;;20.23;9.85;;;;;;;5.09;99.66;101839.75;682256;28;1188;-52
2021/11/09 00:09:34;;;;;;;19.67;10.50;;;;;;;5.08;99.13;101841.47;682497;28;1061;-51
2021/11/09 00:09:59;;;;;;;17.83;9.95;;;;;;;5.02;98.81;101841.25;682124;28;4540;-57
2021/11/09 00:10:20;;;;;;;18.00;9.75;;;;;;;4.99;98.84;101835.06;681967;28;1127;-50
2021/11/09 00:10:40;;;;;;;19.15;10.00;;;;;;;4.95;99.06;101841.84;681970;28;1144;-53
2021/11/09 00:11:00;;;;;;;21.15;9.70;;;;;;;4.92;99.26;101845.19;682474;28;1168;-56
2021/11/09 00:11:22;;;;;;;21.17;9.57;;;;;;;4.89;99.46;101837.31;682792;28;3616;-53
2021/11/09 00:11:43;;;;;;;19.88;9.20;;;;;;;4.86;99.56;101837.22;682082;28;1188;-52
2021/11/09 00:12:04;;;;;;;16.20;9.43;;;;;;;4.84;99.43;101837.97;681692;28;1353;-50
2021/11/09 00:12:30;;;;;;;16.33;9.03;;;;;;;4.83;99.70;101841.38;682133;28;2261;-51
2021/11/09 00:12:54;;;;;;;16.30;8.75;;;;;;;4.83;100.00;101842.28;682508;28;4455;-52
2021/11/09 00:13:15;;;;;;;16.35;9.10;;;;;;;4.83;99.81;101841.38;683347;28;1186;-51
2021/11/09 00:13:35;;;;;;;17.33;9.27;;;;;;;4.83;100.00;101841.38;683404;28;1238;-51
2021/11/09 00:13:56;;;;;;;16.27;9.07;;;;;;;4.86;99.71;101836.31;682943;28;1210;-54
2021/11/09 00:14:16;;;;;;;16.73;8.90;;;;;;;4.86;99.57;101844.06;682205;28;3655;-55
2021/11/09 00:14:37;;;;;;;18.77;9.07;;;;;;;4.85;99.77;101844.94;681612;28;1135;-51
2021/11/09 00:15:01;;;;;;;17.65;9.20;;;;;;;4.87;99.99;101844.13;682875;28;1351;-51
2021/11/09 00:15:23;;;;;;;17.42;9.02;;;;;;;4.89;99.60;101836.44;682752;28;1192;-51
2021/11/09 00:15:43;;;;;;;16.65;8.73;;;;;;;4.92;99.72;101844.31;683096;28;1326;-50
2021/11/09 00:16:04;;;;;;;14.52;8.00;;;;;;;4.92;99.62;101844.31;682475;28;4581;-50
2021/11/09 00:16:25;;;;;;;16.73;8.15;;;;;;;4.89;99.51;101842.50;682368;28;1056;-55
2021/11/09 00:16:45;;;;;;;17.57;8.50;;;;;;;4.87;99.41;101840.66;681500;28;1316;-52
2021/11/09 00:17:05;;;;;;;16.10;8.80;;;;;;;4.86;99.14;101849.25;682551;28;3040;-52
2021/11/09 00:17:27;;;;;;;16.90;9.10;;;;;;;4.87;99.52;101846.72;682409;28;3492;-51
2021/11/09 00:17:56;;;;;;;16.83;8.20;;;;;;;4.87;99.09;101845.84;681640;28;1915;-55
2021/11/09 00:18:16;;;;;;;16.17;8.55;;;;;;;4.85;99.19;101848.38;683492;28;1117;-50
2021/11/09 00:18:37;;;;;;;17.43;8.83;;;;;;;4.82;99.52;101847.38;683818;28;1417;-52
2021/11/09 00:18:59;;;;;;;19.52;8.90;;;;;;;4.82;100.00;101845.69;682393;28;4404;-51
2021/11/09 00:19:20;;;;;;;17.30;8.40;;;;;;;4.85;100.00;101845.81;683567;28;1005;-51
2021/11/09 00:19:40;;;;;;;17.15;9.00;;;;;;;4.85;99.97;101844.94;681710;28;1056;-53
2021/11/09 00:20:02;;;;;;;16.30;8.93;;;;;;;4.84;100.00;101849.22;682375;28;1116;-51
2021/11/09 00:20:25;;;;;;;14.85;8.60;;;;;;;4.84;99.80;101849.22;682049;28;3071;-52
2021/11/09 00:20:45;;;;;;;14.18;8.60;;;;;;;4.84;99.84;101846.63;682482;28;1303;-51
2021/11/09 00:21:06;;;;;;;15.43;8.85;;;;;;;4.85;99.65;101847.53;682044;28;3490;-54
2021/11/09 00:21:27;;;;;;;16.60;8.70;;;;;;;4.78;99.68;101844.69;682034;28;1220;-52
2021/11/09 00:21:47;;;;;;;16.90;8.60;;;;;;;4.76;100.00;101846.34;682356;28;1255;-51
2021/11/09 00:22:08;;;;;;;14.63;8.70;;;;;;;4.74;99.71;101845.38;682863;28;4446;-52
2021/11/09 00:22:28;;;;;;;15.68;8.88;;;;;;;4.75;100.00;101847.16;682232;28;1224;-51
2021/11/09 00:22:49;;;;;;;16.33;8.53;;;;;;;4.78;99.69;101839.50;682215;28;1636;-50
2021/11/09 00:23:11;;;;;;;16.85;8.57;;;;;;;4.82;99.59;101843.09;682873;28;1195;-50
2021/11/09 00:23:32;;;;;;;16.92;8.73;;;;;;;4.86;99.96;101841.50;683763;28;1188;-51
2021/11/09 00:23:52;;;;;;;16.50;8.50;;;;;;;4.87;99.52;101840.66;683065;28;1190;-55
2021/11/09 00:24:13;;;;;;;13.43;8.50;;;;;;;4.87;99.29;101843.25;683089;28;1255;-52
2021/11/09 00:24:33;;;;;;;17.17;8.85;;;;;;;4.89;99.53;101841.63;682649;28;2007;-53
2021/11/09 00:24:54;;;;;;;14.53;8.50;;;;;;;4.91;99.34;101839.97;679905;28;4951;-50
2021/11/09 00:25:16;;;;;;;16.67;8.80;;;;;;;4.91;98.96;101840.84;682399;28;1449;-51
2021/11/09 00:25:38;;;;;;;16.90;8.90;;;;;;;4.91;98.96;101846.00;682442;28;1273;-50
2021/11/09 00:25:59;;;;;;;16.63;8.70;;;;;;;4.91;98.61;101842.56;683429;28;1181;-51
2021/11/09 00:26:21;;;;;;;17.77;8.63;;;;;;;4.85;98.11;101839.75;683196;28;1094;-52
2021/11/09 00:26:41;;;;;;;16.45;8.68;;;;;;;4.82;98.81;101835.34;682558;28;1327;-53
2021/11/09 00:27:02;;;;;;;15.48;8.75;;;;;;;4.77;98.56;101839.44;682011;28;1099;-52
2021/11/09 00:27:22;;;;;;;17.90;8.77;;;;;;;4.70;98.50;101846.09;684962;28;1307;-50
2021/11/09 00:27:43;;;;;;;16.83;8.75;;;;;;;4.72;99.54;101838.38;683910;28;1272;-51
2021/11/09 00:28:07;;;;;;;18.05;8.75;;;;;;;4.78;99.22;101844.69;684416;28;4492;-51
2021/11/09 00:28:27;;;;;;;16.10;8.75;;;;;;;4.82;99.38;101845.69;682858;28;2434;-52
2021/11/09 00:28:48;;;;;;;16.73;8.70;;;;;;;4.78;98.88;101839.50;682658;28;5051;-53
2021/11/09 00:29:08;;;;;;;16.83;9.00;;;;;;;4.76;98.89;101846.34;683170;28;1167;-52
2021/11/09 00:29:29;;;;;;;18.17;8.70;;;;;;;4.80;99.01;101841.28;682610;28;1242;-51
2021/11/09 00:29:49;;;;;;;16.40;8.50;;;;;;;4.81;99.37;101840.47;682785;28;1400;-50
2021/11/09 00:30:12;;;;;;;18.45;8.75;;;;;;;4.84;99.01;101844.03;682661;28;1317;-53
2021/11/09 00:30:33;;;;;;;14.75;8.13;;;;;;;4.85;98.77;101844.94;682413;28;1311;-55
2021/11/09 00:30:54;;;;;;;17.98;8.63;;;;;;;4.80;98.42;101842.16;682695;28;4414;-52
2021/11/09 00:31:14;;;;;;;14.67;8.40;;;;;;;4.75;98.49;101844.56;682824;28;1425;-52
2021/11/09 00:31:35;;;;;;;14.93;8.43;;;;;;;4.76;99.13;101840.25;681459;28;3897;-52
2021/11/09 00:31:58;;;;;;;15.57;8.70;;;;;;;4.74;99.64;101847.97;682505;28;1368;-51
2021/11/09 00:32:19;;;;;;;14.60;8.55;;;;;;;4.70;99.30;101846.09;682996;28;1090;-52
2021/11/09 00:32:43;;;;;;;15.75;8.55;;;;;;;4.67;98.77;101845.97;682928;28;1277;-52
2021/11/09 00:33:04;;;;;;;17.15;8.43;;;;;;;4.67;99.61;101840.81;683365;28;1090;-53
2021/11/09 00:33:25;;;;;;;15.38;8.60;;;;;;;4.65;99.25;101842.44;683191;28;1147;-55
2021/11/09 00:33:46;;;;;;;17.58;8.95;;;;;;;4.68;99.36;101840.00;682683;28;997;-51
2021/11/09 00:34:06;;;;;;;14.80;8.33;;;;;;;4.64;99.26;101840.69;685156;28;4484;-55
2021/11/09 00:34:26;;;;;;;15.27;8.33;;;;;;;4.61;99.62;101848.34;685865;28;1487;-51
2021/11/09 00:34:47;;;;;;;15.27;8.67;;;;;;;4.62;99.77;101839.75;684279;28;1475;-51
2021/11/09 00:35:08;;;;;;;17.17;8.68;;;;;;;4.64;99.39;101848.47;683991;28;3487;-51
2021/11/09 00:35:31;;;;;;;16.58;8.90;;;;;;;4.68;99.30;101850.34;685209;28;3433;-52
2021/11/09 00:35:51;;;;;;;15.07;8.63;;;;;;;4.68;99.18;101842.56;682754;28;1462;-51
2021/11/09 00:36:12;;;;;;;14.77;8.45;;;;;;;4.75;99.26;101844.56;683783;28;1275;-53
2021/11/09 00:36:32;;;;;;;16.17;8.07;;;;;;;4.81;98.93;101837.88;683826;28;1136;-53
2021/11/09 00:36:53;;;;;;;15.52;7.65;;;;;;;4.80;98.40;101836.97;682782;28;4388;-53
2021/11/09 00:37:13;;;;;;;14.27;7.83;;;;;;;4.76;98.81;101835.97;683337;28;1303;-52
2021/11/09 00:37:34;;;;;;;14.10;8.30;;;;;;;4.72;98.26;101839.28;683408;28;1163;-52
2021/11/09 00:37:56;;;;;;;17.20;8.50;;;;;;;4.71;98.68;101837.50;682273;28;1918;-53
2021/11/09 00:38:16;;;;;;;16.67;8.35;;;;;;;4.73;99.26;101842.75;682018;28;2195;-53
2021/11/09 00:38:37;;;;;;;16.60;8.05;;;;;;;4.73;99.49;101835.84;682819;28;1501;-52
2021/11/09 00:38:57;;;;;;;16.65;8.43;;;;;;;4.75;99.02;101838.53;682393;28;1065;-52
2021/11/09 00:39:18;;;;;;;18.60;8.50;;;;;;;4.73;99.37;101838.44;681601;28;4208;-54
2021/11/09 00:39:41;;;;;;;16.27;8.32;;;;;;;4.72;99.32;101833.19;682824;28;1276;-51
2021/11/09 00:40:03;;;;;;;15.57;8.40;;;;;;;4.63;98.95;101838.91;681738;28;4444;-55
2021/11/09 00:40:28;;;;;;;16.35;8.52;;;;;;;4.57;98.97;101841.28;680998;28;1112;-51
2021/11/09 00:40:48;;;;;;;17.60;8.00;;;;;;;4.54;99.23;101842.03;680428;28;1196;-53
2021/11/09 00:41:09;;;;;;;15.07;8.00;;;;;;;4.49;99.78;101840.09;681276;28;2896;-51
2021/11/09 00:41:29;;;;;;;16.03;8.60;;;;;;;4.42;99.29;101834.66;682221;28;1274;-52
2021/11/09 00:41:50;;;;;;;16.27;8.73;;;;;;;4.39;100.00;101837.16;682444;28;1266;-54
2021/11/09 00:42:11;;;;;;;17.52;9.05;;;;;;;4.36;100.00;101842.22;683100;28;1374;-51
2021/11/09 00:42:31;;;;;;;16.90;8.83;;;;;;;4.32;99.48;101834.25;683515;28;1132;-52
2021/11/09 00:42:52;;;;;;;15.53;8.53;;;;;;;4.27;99.83;101841.84;682207;28;4347;-50
2021/11/09 00:43:16;;;;;;;14.50;8.47;;;;;;;4.28;99.82;101842.72;682787;28;1319;-52
2021/11/09 00:43:36;;;;;;;15.85;8.90;;;;;;;4.34;100.00;101841.25;682556;28;1546;-54
2021/11/09 00:43:56;;;;;;;15.98;9.05;;;;;;;4.35;100.00;101843.03;682886;28;1909;-54
2021/11/09 00:44:17;;;;;;;15.67;8.57;;;;;;;4.36;99.99;101839.63;683747;28;4021;-51
2021/11/09 00:44:38;;;;;;;16.25;8.85;;;;;;;4.36;100.00;101843.91;684792;28;1366;-51
2021/11/09 00:44:58;;;;;;;16.48;8.85;;;;;;;4.39;99.98;101842.31;685323;28;1146;-52
2021/11/09 00:45:19;;;;;;;17.97;9.13;;;;;;;4.41;100.00;101837.19;685317;28;1134;-51
2021/11/09 00:45:40;;;;;;;16.90;8.48;;;;;;;4.43;100.00;101840.72;682834;28;1099;-52
2021/11/09 00:46:01;;;;;;;15.97;8.30;;;;;;;4.43;99.87;101845.91;682944;28;5170;-51
2021/11/09 00:46:21;;;;;;;16.17;8.25;;;;;;;4.45;100.00;101841.69;682521;28;1415;-51
2021/11/09 00:46:42;;;;;;;15.18;8.85;;;;;;;4.49;99.65;101843.56;681796;28;1431;-52
2021/11/09 00:47:03;;;;;;;14.07;8.45;;;;;;;4.50;100.00;101841.84;682339;28;3045;-54
2021/11/09 00:47:24;;;;;;;15.57;8.47;;;;;;;4.49;99.41;101843.56;681445;28;3822;-52
2021/11/09 00:47:45;;;;;;;16.88;8.65;;;;;;;4.44;98.70;101847.66;681881;28;1229;-52
2021/11/09 00:48:06;;;;;;;18.13;8.93;;;;;;;4.41;99.28;101848.44;682773;28;1365;-51
2021/11/09 00:48:27;;;;;;;15.95;8.50;;;;;;;4.39;98.98;101839.72;682548;28;1117;-52
2021/11/09 00:48:47;;;;;;;15.55;8.40;;;;;;;4.42;99.30;101842.44;682381;28;1284;-51
2021/11/09 00:49:08;;;;;;;16.47;8.47;;;;;;;4.49;99.56;101850.47;682500;28;4462;-55
2021/11/09 00:49:28;;;;;;;15.98;8.77;;;;;;;4.50;99.74;101844.44;683094;28;1175;-54
2021/11/09 00:49:49;;;;;;;15.47;8.77;;;;;;;4.51;100.00;101841.03;683130;28;1211;-53
2021/11/09 00:50:11;;;;;;;16.08;8.40;;;;;;;4.55;99.91;101840.31;682686;28;3398;-55
2021/11/09 00:50:32;;;;;;;17.02;8.45;;;;;;;4.64;99.47;101850.16;680834;28;1252;-52
2021/11/09 00:50:53;;;;;;;17.70;8.70;;;;;;;4.65;99.09;101842.44;680414;28;1221;-53
2021/11/09 00:51:14;;;;;;;16.42;8.60;;;;;;;4.63;99.24;101841.50;679732;28;1315;-53
2021/11/09 00:51:37;;;;;;;15.33;8.40;;;;;;;4.59;99.10;101842.22;680095;28;1307;-55
2021/11/09 00:51:57;;;;;;;15.60;8.20;;;;;;;4.55;98.43;101846.38;680458;28;4349;-50
2021/11/09 00:52:18;;;;;;;15.52;8.50;;;;;;;4.53;98.36;101842.00;680727;28;1157;-51
2021/11/09 00:52:39;;;;;;;14.40;8.23;;;;;;;4.52;98.64;101841.09;681055;28;1678;-52
2021/11/09 00:53:00;;;;;;;14.82;7.97;;;;;;;4.50;98.88;101842.75;681698;28;3148;-51
2021/11/09 00:53:21;;;;;;;15.77;8.17;;;;;;;4.44;98.81;101842.50;684588;28;1347;-53
2021/11/09 00:53:42;;;;;;;14.77;8.20;;;;;;;4.46;99.67;101843.44;684276;28;1233;-51
2021/11/09 00:54:03;;;;;;;15.98;8.18;;;;;;;4.43;99.51;101841.63;683296;28;1340;-50
2021/11/09 00:54:26;;;;;;;16.75;8.27;;;;;;;4.39;99.64;101842.31;682647;28;1196;-51
2021/11/09 00:54:47;;;;;;;17.90;8.55;;;;;;;4.32;99.20;101840.31;682741;28;1009;-52
2021/11/09 00:55:07;;;;;;;16.70;8.50;;;;;;;4.30;99.59;101844.53;681702;28;4516;-52
2021/11/09 00:55:28;;;;;;;16.33;8.53;;;;;;;4.31;100.00;101843.72;682739;28;1053;-54
2021/11/09 00:55:49;;;;;;;16.20;8.67;;;;;;;4.37;100.00;101845.66;682804;28;3140;-52
2021/11/09 00:56:09;;;;;;;14.43;7.82;;;;;;;4.36;100.00;101838.72;680706;28;3792;-53
2021/11/09 00:56:31;;;;;;;18.00;8.57;;;;;;;4.31;99.46;101841.13;682263;28;1440;-52
2021/11/09 00:56:52;;;;;;;17.40;8.48;;;;;;;4.28;100.00;101841.03;681622;28;1069;-53
2021/11/09 00:57:12;;;;;;;17.85;8.43;;;;;;;4.25;99.62;101846.94;683313;28;1179;-54
2021/11/09 00:57:33;;;;;;;16.60;8.30;;;;;;;4.24;99.85;101845.19;683338;28;1160;-52
2021/11/09 00:57:53;;;;;;;16.23;8.30;;;;;;;4.22;100.00;101841.66;678877;28;4450;-53
2021/11/09 00:58:15;;;;;;;17.30;8.30;;;;;;;4.26;100.00;101842.66;680175;29;1342;-52
2021/11/09 00:58:35;;;;;;;16.00;8.57;;;;;;;4.31;100.00;101846.31;680251;28;1283;-54
2021/11/09 00:58:56;;;;;;;16.23;8.50;;;;;;;4.38;100.00;101845.72;677611;29;2115;-53
2021/11/09 00:59:16;;;;;;;16.07;8.00;;;;;;;4.46;99.62;101850.31;679241;28;3446;-52
2021/11/09 00:59:37;;;;;;;15.93;7.70;;;;;;;4.48;99.27;101848.69;678983;28;1098;-54
2021/11/09 00:59:57;;;;;;;12.88;7.90;;;;;;;4.47;98.90;101847.78;681892;28;1103;-53
2021/11/09 01:00:22;;;;;;;15.83;8.10;;;;;;;4.43;98.68;101844.22;682501;28;1419;-55
2021/11/09 01:00:43;;;;;;;15.45;7.97;;;;;;;4.45;98.81;101848.56;682234;28;1080;-51
2021/11/09 01:01:04;;;;;;;15.52;8.77;;;;;;;4.44;98.89;101845.09;681804;28;4347;-51
2021/11/09 01:01:24;;;;;;;14.52;7.97;;;;;;;4.44;99.03;101847.66;682002;28;1025;-52
2021/11/09 01:01:45;;;;;;;15.38;8.07;;;;;;;4.43;99.04;101845.91;682057;28;3265;-51
2021/11/09 01:02:06;;;;;;;13.90;8.07;;;;;;;4.41;99.57;101844.97;683284;28;3807;-52
2021/11/09 01:02:27;;;;;;;15.20;8.07;;;;;;;4.41;99.44;101840.66;682725;28;1399;-51
2021/11/09 01:02:49;;;;;;;17.23;8.43;;;;;;;4.41;99.68;101844.97;682912;28;1017;-53
2021/11/09 01:03:11;;;;;;;16.75;8.02;;;;;;;4.42;99.41;101845.03;683527;28;1091;-53
2021/11/09 01:03:31;;;;;;;17.85;7.93;;;;;;;4.40;99.06;101846.69;683858;28;1283;-53
2021/11/09 01:03:52;;;;;;;15.70;8.00;;;;;;;4.36;99.17;101843.91;680358;28;4714;-55
2021/11/09 01:04:12;;;;;;;16.25;7.93;;;;;;;4.34;99.14;101845.56;681191;28;1159;-51
2021/11/09 01:04:33;;;;;;;14.60;8.30;;;;;;;4.34;99.60;101845.56;683038;28;1108;-52
2021/11/09 01:04:54;;;;;;;17.08;8.45;;;;;;;4.38;98.99;101848.31;682755;28;3647;-51
2021/11/09 01:05:20;;;;;;;16.13;8.50;;;;;;;4.39;99.36;101847.50;683394;28;1124;-54
2021/11/09 01:05:41;;;;;;;15.75;8.27;;;;;;;4.45;99.02;101843.41;682369;28;1026;-53
2021/11/09 01:06:01;;;;;;;15.57;8.02;;;;;;;4.49;99.32;101847.88;683154;28;1037;-53
2021/11/09 01:06:22;;;;;;;16.02;8.13;;;;;;;4.49;98.78;101840.97;682075;28;1358;-54
2021/11/09 01:06:43;;;;;;;13.55;7.90;;;;;;;4.53;98.79;101850.63;683121;28;1138;-53
2021/11/09 01:07:04;;;;;;;14.70;7.73;;;;;;;4.53;98.68;101853.22;682375;28;4567;-51
2021/11/09 01:07:24;;;;;;;15.48;7.90;;;;;;;4.51;97.99;101864.34;683440;28;1239;-51
2021/11/09 01:07:45;;;;;;;14.43;7.88;;;;;;;4.47;98.07;101852.09;682141;28;3426;-51
2021/11/09 01:08:09;;;;;;;17.30;8.00;;;;;;;4.42;98.83;101850.22;682991;28;3378;-51
2021/11/09 01:08:30;;;;;;;14.10;7.88;;;;;;;4.39;98.59;101850.09;682255;28;1050;-54
2021/11/09 01:08:51;;;;;;;14.45;7.97;;;;;;;4.35;98.05;101844.75;683426;28;1161;-51
2021/11/09 01:09:12;;;;;;;14.33;8.03;;;;;;;4.32;98.05;101853.25;682621;28;1100;-52
2021/11/09 01:09:32;;;;;;;15.63;8.10;;;;;;;4.30;98.67;101841.06;682908;28;1068;-53
2021/11/09 01:09:52;;;;;;;13.67;7.80;;;;;;;4.34;98.50;101851.59;682454;28;4728;-59
2021/11/09 01:10:13;;;;;;;14.90;8.23;;;;;;;4.38;98.68;101848.31;681446;28;1140;-51
2021/11/09 01:10:37;;;;;;;14.77;8.15;;;;;;;4.34;98.99;101850.72;681438;28;1057;-53
2021/11/09 01:10:58;;;;;;;13.90;8.23;;;;;;;4.28;98.61;101850.47;682428;28;3375;-51
2021/11/09 01:11:19;;;;;;;13.13;7.53;;;;;;;4.25;99.21;101851.22;681683;28;1324;-56
2021/11/09 01:11:39;;;;;;;14.60;7.82;;;;;;;4.21;99.04;101846.75;681935;28;1216;-51
2021/11/09 01:12:00;;;;;;;15.45;8.15;;;;;;;4.20;98.72;101852.78;684288;28;1076;-53
2021/11/09 01:12:20;;;;;;;14.80;7.87;;;;;;;4.18;99.36;101849.22;684121;28;1033;-52
2021/11/09 01:12:40;;;;;;;14.10;7.93;;;;;;;4.20;99.75;101852.78;682319;28;1060;-50
2021/11/09 01:13:02;;;;;;;13.33;7.77;;;;;;;4.22;99.26;101851.13;682568;28;4585;-52
2021/11/09 01:13:25;;;;;;;14.00;7.70;;;;;;;4.23;99.02;101852.88;682499;28;1251;-50
2021/11/09 01:13:48;;;;;;;14.85;8.20;;;;;;;4.22;98.88;101854.59;681801;28;3072;-52
2021/11/09 01:14:08;;;;;;;14.63;8.02;;;;;;;4.20;99.39;101847.59;682127;28;1114;-51
2021/11/09 01:14:29;;;;;;;14.90;8.07;;;;;;;4.15;98.95;101844.81;681837;28;1481;-53
2021/11/09 01:14:50;;;;;;;13.20;7.80;;;;;;;4.12;99.51;101849.00;682668;28;1206;-52
2021/11/09 01:15:13;;;;;;;13.60;7.73;;;;;;;4.11;99.23;101847.22;683053;28;1694;-53
2021/11/09 01:15:36;;;;;;;15.57;8.38;;;;;;;4.19;99.66;101846.69;681907;28;1251;-50
2021/11/09 01:15:57;;;;;;;13.63;7.80;;;;;;;4.23;99.21;101847.72;681872;28;4349;-50
2021/11/09 01:16:18;;;;;;;14.74;8.12;;;;;;;4.25;98.86;101851.22;682000;28;1314;-53
2021/11/09 01:16:42;;;;;;;14.30;7.67;;;;;;;4.24;99.15;101849.47;681589;28;3089;-51
2021/11/09 01:17:02;;;;;;;15.88;7.82;;;;;;;4.21;98.80;101847.66;683093;28;3692;-53
2021/11/09 01:17:26;;;;;;;17.67;8.40;;;;;;;4.19;99.09;101857.03;682296;28;1425;-52
2021/11/09 01:17:46;;;;;;;14.85;8.50;;;;;;;4.18;98.99;101850.13;682351;28;1918;-52
2021/11/09 01:18:07;;;;;;;13.82;8.52;;;;;;;4.17;99.93;101855.25;682786;28;1487;-50
2021/11/09 01:18:34;;;;;;;13.43;8.40;;;;;;;4.15;99.37;101854.28;683393;28;1009;-52
2021/11/09 01:18:58;;;;;;;15.15;8.57;;;;;;;4.11;99.48;101853.25;681874;28;4497;-51
2021/11/09 01:19:19;;;;;;;19.25;8.65;;;;;;;4.10;98.92;101854.09;682822;28;1119;-53
2021/11/09 01:19:40;;;;;;;15.18;8.20;;;;;;;4.15;99.26;101854.28;683017;28;3242;-51
2021/11/09 01:20:02;;;;;;;14.20;8.20;;;;;;;4.15;99.74;101860.31;682097;28;2250;-54
2021/11/09 01:20:27;;;;;;;14.88;8.20;;;;;;;4.14;99.61;101853.41;682730;28;1218;-51
2021/11/09 01:20:50;;;;;;;13.60;8.48;;;;;;;4.16;99.60;101858.66;681873;28;1076;-54
2021/11/09 01:21:14;;;;;;;13.95;7.65;;;;;;;4.18;98.89;101850.13;681269;28;1517;-54
2021/11/09 01:21:36;;;;;;;15.07;7.65;;;;;;;4.25;98.93;101861.59;682174;28;1284;-50
2021/11/09 01:21:56;;;;;;;14.55;7.82;;;;;;;4.28;98.97;101853.97;682395;28;4686;-52
2021/11/09 01:22:17;;;;;;;16.53;7.93;;;;;;;4.30;98.71;101849.72;682830;28;1256;-52
2021/11/09 01:22:37;;;;;;;15.65;8.27;;;;;;;4.30;98.22;101857.47;683313;28;3108;-53
2021/11/09 01:22:58;;;;;;;14.20;7.70;;;;;;;4.26;97.96;101859.09;682538;28;4795;-52
2021/11/09 01:23:20;;;;;;;12.40;7.77;;;;;;;4.25;98.05;101846.94;682837;28;1495;-55
2021/11/09 01:23:46;;;;;;;14.00;8.13;;;;;;;4.23;98.22;101855.47;683349;28;1064;-52
2021/11/09 01:24:06;;;;;;;15.38;7.72;;;;;;;4.19;97.82;101851.88;682874;28;1251;-55
2021/11/09 01:24:27;;;;;;;11.97;7.73;;;;;;;4.18;98.17;101851.81;682556;28;1298;-52
2021/11/09 01:24:47;;;;;;;13.77;8.20;;;;;;;4.16;98.76;101856.94;682265;28;1246;-51
2021/11/09 01:25:09;;;;;;;14.57;7.90;;;;;;;4.19;98.20;101866.53;681428;28;4445;-52
2021/11/09 01:25:29;;;;;;;15.60;8.13;;;;;;;4.21;99.04;101854.50;682533;28;3045;-52
2021/11/09 01:25:51;;;;;;;14.77;7.95;;;;;;;4.21;98.57;101859.69;680223;28;2143;-55
2021/11/09 01:26:12;;;;;;;15.23;8.05;;;;;;;4.16;98.67;101866.41;680257;29;1500;-53
2021/11/09 01:26:33;;;;;;;14.02;7.97;;;;;;;4.12;98.42;101861.94;680832;29;1089;-51
2021/11/09 01:26:53;;;;;;;14.82;7.88;;;;;;;4.03;98.49;101858.13;680579;28;1195;-55
2021/11/09 01:27:14;;;;;;;12.38;7.63;;;;;;;4.00;98.85;101860.59;679877;28;1255;-51
2021/11/09 01:27:35;;;;;;;14.03;8.00;;;;;;;4.02;98.92;101864.13;682936;28;1088;-56
2021/11/09 01:27:58;;;;;;;15.68;8.40;;;;;;;4.06;98.73;101866.03;681456;28;4781;-51
2021/11/09 01:28:19;;;;;;;16.13;7.93;;;;;;;4.05;98.53;101859.06;682684;28;993;-52
2021/11/09 01:28:40;;;;;;;14.47;7.70;;;;;;;4.03;98.86;101860.72;682903;28;3305;-51
2021/11/09 01:29:03;;;;;;;12.90;7.80;;;;;;;3.97;99.41;101862.16;683399;28;1322;-53
2021/11/09 01:29:24;;;;;;;14.85;8.30;;;;;;;3.97;99.30;101864.75;680736;28;1320;-53
2021/11/09 01:29:44;;;;;;;14.47;8.00;;;;;;;4.01;98.88;101864.94;680274;28;1196;-54
2021/11/09 01:30:07;;;;;;;15.43;7.80;;;;;;;4.04;99.22;101861.59;681286;29;1193;-56
2021/11/09 01:30:28;;;;;;;15.50;7.68;;;;;;;4.11;99.43;101862.75;678968;29;1248;-52
2021/11/09 01:30:49;;;;;;;14.18;8.15;;;;;;;4.13;98.95;101858.53;678337;29;1229;-51
2021/11/09 01:31:10;;;;;;;14.87;7.80;;;;;;;4.14;99.03;101865.44;677937;29;4291;-54
2021/11/09 01:31:30;;;;;;;12.98;7.65;;;;;;;4.14;98.83;101853.41;680062;29;3015;-53
2021/11/09 01:31:53;;;;;;;12.80;7.50;;;;;;;4.16;98.71;101862.09;679890;28;3434;-53
2021/11/09 01:32:18;;;;;;;13.73;7.65;;;;;;;4.14;98.18;101857.69;679762;28;1139;-51
2021/11/09 01:32:38;;;;;;;14.60;7.65;;;;;;;4.07;98.31;101856.53;681389;28;1200;-52
2021/11/09 01:32:58;;;;;;;16.37;7.73;;;;;;;4.07;98.31;101854.84;682822;28;1171;-53
2021/11/09 01:33:20;;;;;;;15.07;7.82;;;;;;;4.04;98.71;101861.59;683333;28;1185;-50
2021/11/09 01:33:42;;;;;;;14.50;8.00;;;;;;;4.02;98.72;101858.09;682956;28;1324;-51
2021/11/09 01:34:03;;;;;;;14.80;7.85;;;;;;;4.01;98.86;101857.19;683658;28;4436;-52
2021/11/09 01:34:24;;;;;;;14.98;7.90;;;;;;;3.96;99.11;101860.41;684940;28;3234;-51
2021/11/09 01:34:44;;;;;;;14.23;7.80;;;;;;;3.97;98.80;101862.16;684925;28;2224;-52
2021/11/09 01:35:06;;;;;;;14.10;7.55;;;;;;;3.90;99.20;101853.25;685108;28;1351;-55
2021/11/09 01:35:27;;;;;;;14.25;7.45;;;;;;;3.86;99.12;101856.53;685725;28;1278;-51
2021/11/09 01:35:47;;;;;;;14.40;7.68;;;;;;;3.86;99.25;101856.53;684643;28;1296;-55
2021/11/09 01:36:08;;;;;;;13.73;7.60;;;;;;;3.86;99.51;101861.72;685756;28;1306;-52
2021/11/09 01:36:29;;;;;;;14.52;7.80;;;;;;;3.84;98.67;101855.63;685178;28;1408;-52
2021/11/09 01:36:53;;;;;;;13.27;7.88;;;;;;;3.80;99.30;101853.72;681375;28;1123;-50
2021/11/09 01:37:15;;;;;;;13.65;7.53;;;;;;;3.78;99.40;101853.66;682892;28;4901;-52
2021/11/09 01:37:38;;;;;;;14.68;7.65;;;;;;;3.69;98.78;101854.13;682202;28;3341;-51
2021/11/09 01:37:59;;;;;;;13.32;7.45;;;;;;;3.68;99.16;101854.97;679644;29;1979;-53
2021/11/09 01:38:19;;;;;;;12.63;7.30;;;;;;;3.79;99.92;101846.78;679171;28;960;-50
2021/11/09 01:38:40;;;;;;;12.43;7.22;;;;;;;3.82;99.91;101855.56;680779;28;1061;-51
2021/11/09 01:39:02;;;;;;;12.27;7.30;;;;;;;3.83;99.65;101852.13;680466;29;1143;-51
2021/11/09 01:39:23;;;;;;;13.82;7.50;;;;;;;3.88;99.36;101855.78;681403;28;4664;-53
2021/11/09 01:39:43;;;;;;;14.25;7.53;;;;;;;3.89;98.87;101861.84;680505;28;1116;-51
2021/11/09 01:40:05;;;;;;;12.60;7.50;;;;;;;3.85;98.93;101857.34;682862;28;4454;-51
2021/11/09 01:40:26;;;;;;;12.02;7.55;;;;;;;3.83;98.94;101856.41;682776;28;3855;-53
2021/11/09 01:40:47;;;;;;;13.80;7.38;;;;;;;3.80;98.70;101856.31;682247;28;3788;-52
2021/11/09 01:41:08;;;;;;;14.57;7.57;;;;;;;3.79;99.04;101860.56;681668;28;1195;-51
2021/11/09 01:41:29;;;;;;;13.50;8.20;;;;;;;3.78;99.17;101855.34;680978;28;1190;-51
2021/11/09 01:41:49;;;;;;;12.67;8.00;;;;;;;3.79;99.73;101857.97;681689;28;1209;-52
2021/11/09 01:42:10;;;;;;;12.70;7.75;;;;;;;3.80;99.32;101858.88;683841;28;1068;-51
2021/11/09 01:42:30;;;;;;;13.10;7.67;;;;;;;3.80;99.16;101857.16;682343;28;1112;-53
2021/11/09 01:42:52;;;;;;;13.83;7.50;;;;;;;3.81;99.50;101858.94;682924;28;4471;-55
2021/11/09 01:43:15;;;;;;;14.85;7.45;;;;;;;3.83;99.79;101861.59;681642;28;1163;-52
2021/11/09 01:43:37;;;;;;;14.23;7.80;;;;;;;3.82;98.74;101859.81;681031;28;3527;-53